Time,TemperatureF,DewpointF,PressureIn,WindDirection,WindDirectionDegrees,WindSpeedMPH,WindSpeedGustMPH,Humidity,HourlyPrecipIn,Conditions,Clouds,dailyrainin,SoftwareType,DateUTC
2013-03-08 00:13:00,49.1,40.0,30.23,SE,130,0.0,2.0,72,0.00,,,0.00,weatherlink.com 1.10,2013-03-08 06:13:00,
2013-03-08 00:28:00,49.1,41.0,30.23,SE,130,0.0,2.0,73,0.00,,,0.00,weatherlink.com 1.10,2013-03-08 06:28:00,
2013-03-08 00:43:00,49.0,41.0,30.22,SE,130,0.0,0.0,74,0.00,,,0.00,weatherlink.com 1.10,2013-03-08 06:43:00,
2013-03-08 00:58:00,48.4,41.0,30.22,SE,130,0.0,2.0,75,0.00,,,0.00,weatherlink.com 1.10,2013-03-08 06:58:00,
2013-03-08 01:13:00,47.1,40.0,30.22,SE,130,1.0,3.0,77,0.00,,,0.00,weatherlink.com 1.10,2013-03-08 07:13:00,
2013-03-08 01:28:00,46.4,40.0,30.21,SE,130,0.0,3.0,79,0.00,,,0.00,weatherlink.com 1.10,2013-03-08 07:28:00,
2013-03-08 01:44:00,46.8,41.0,30.22,SE,130,0.0,1.0,79,0.00,,,0.00,weatherlink.com 1.10,2013-03-08 07:44:00,
2013-03-08 01:59:00,46.8,41.0,30.21,SE,130,0.0,1.0,80,0.00,,,0.00,weatherlink.com 1.10,2013-03-08 07:59:00,
2013-03-08 02:14:00,46.8,41.0,30.20,SE,136,0.0,3.0,80,0.00,,,0.00,weatherlink.com 1.10,2013-03-08 08:14:00,
2013-03-08 02:29:00,46.2,40.0,30.20,SE,136,0.0,0.0,80,0.00,,,0.00,weatherlink.com 1.10,2013-03-08 08:29:00,
2013-03-08 02:44:00,45.3,40.0,30.20,SE,136,0.0,0.0,82,0.00,,,0.00,weatherlink.com 1.10,2013-03-08 08:44:00,
2013-03-08 02:59:00,45.0,41.0,30.20,SE,136,0.0,0.0,84,0.00,,,0.00,weatherlink.com 1.10,2013-03-08 08:59:00,
2013-03-08 03:14:00,45.4,41.0,30.20,SE,136,0.0,0.0,85,0.00,,,0.00,weatherlink.com 1.10,2013-03-08 09:14:00,
2013-03-08 03:29:00,45.7,41.0,30.19,SE,136,0.0,1.0,84,0.00,,,0.00,weatherlink.com 1.10,2013-03-08 09:29:00,
2013-03-08 03:44:00,46.3,41.0,30.19,SE,139,0.0,1.0,83,0.00,,,0.00,weatherlink.com 1.10,2013-03-08 09:44:00,
2013-03-08 03:59:00,46.3,41.0,30.18,SE,139,0.0,1.0,83,0.00,,,0.00,weatherlink.com 1.10,2013-03-08 09:59:00,
2013-03-08 04:14:00,45.7,41.0,30.19,SE,139,0.0,1.0,84,0.00,,,0.00,weatherlink.com 1.10,2013-03-08 10:14:00,
2013-03-08 04:29:00,46.0,41.0,30.18,SE,139,0.0,0.0,84,0.00,,,0.00,weatherlink.com 1.10,2013-03-08 10:29:00,
2013-03-08 04:44:00,46.1,42.0,30.20,SE,139,0.0,0.0,84,0.00,,,0.00,weatherlink.com 1.10,2013-03-08 10:44:00,
2013-03-08 04:59:00,45.9,42.0,30.20,SE,139,0.0,0.0,85,0.00,,,0.00,weatherlink.com 1.10,2013-03-08 10:59:00,
2013-03-08 05:14:00,45.8,41.0,30.21,SE,139,0.0,0.0,84,0.00,,,0.00,weatherlink.com 1.10,2013-03-08 11:14:00,
2013-03-08 05:29:00,45.8,42.0,30.21,SE,139,0.0,0.0,85,0.00,,,0.00,weatherlink.com 1.10,2013-03-08 11:29:00,
2013-03-08 05:44:00,45.6,43.0,30.22,SE,139,0.0,2.0,90,0.00,,,0.00,weatherlink.com 1.10,2013-03-08 11:44:00,
2013-03-08 05:59:00,45.3,42.0,30.21,SE,139,0.0,0.0,87,0.00,,,0.00,weatherlink.com 1.10,2013-03-08 11:59:00,
2013-03-08 06:14:00,45.2,42.0,30.22,SE,139,0.0,0.0,87,0.00,,,0.00,weatherlink.com 1.10,2013-03-08 12:14:00,
2013-03-08 06:29:00,45.1,42.0,30.22,SE,139,0.0,0.0,87,0.00,,,0.00,weatherlink.com 1.10,2013-03-08 12:29:00,
2013-03-08 06:44:00,45.2,42.0,30.22,SE,139,0.0,0.0,87,0.00,,,0.00,weatherlink.com 1.10,2013-03-08 12:44:00,
2013-03-08 06:59:00,45.3,42.0,30.22,SE,139,0.0,0.0,87,0.00,,,0.00,weatherlink.com 1.10,2013-03-08 12:59:00,
2013-03-08 07:14:00,45.8,43.0,30.23,SE,139,0.0,0.0,88,0.00,,,0.00,weatherlink.com 1.10,2013-03-08 13:14:00,
2013-03-08 07:29:00,46.6,43.0,30.24,SE,139,0.0,1.0,88,0.00,,,0.00,weatherlink.com 1.10,2013-03-08 13:29:00,
2013-03-08 07:44:00,48.1,44.0,30.24,SE,139,0.0,1.0,87,0.00,,,0.00,weatherlink.com 1.10,2013-03-08 13:44:00,
2013-03-08 07:59:00,49.0,45.0,30.24,SE,139,0.0,1.0,85,0.00,,,0.00,weatherlink.com 1.10,2013-03-08 13:59:00,
2013-03-08 08:14:00,49.9,45.0,30.25,ESE,123,0.0,2.0,84,0.00,,,0.00,weatherlink.com 1.10,2013-03-08 14:14:00,
2013-03-08 08:29:00,51.7,46.0,30.25,ESE,122,0.0,1.0,81,0.00,,,0.00,weatherlink.com 1.10,2013-03-08 14:29:00,
2013-03-08 08:44:00,55.5,47.0,30.25,ESE,113,2.0,4.0,72,0.00,,,0.00,weatherlink.com 1.10,2013-03-08 14:44:00,
2013-03-08 08:59:00,57.6,47.0,30.26,East,93,1.0,6.0,67,0.00,,,0.00,weatherlink.com 1.10,2013-03-08 14:59:00,
2013-03-08 09:14:00,58.5,47.0,30.26,SE,144,1.0,3.0,67,0.00,,,0.00,weatherlink.com 1.10,2013-03-08 15:14:00,
2013-03-08 09:29:00,59.1,48.0,30.26,ENE,64,0.0,3.0,66,0.00,,,0.00,weatherlink.com 1.10,2013-03-08 15:29:00,
2013-03-08 09:44:00,61.8,51.0,30.26,SE,146,2.0,3.0,67,0.00,,,0.00,weatherlink.com 1.10,2013-03-08 15:44:00,
2013-03-08 09:59:00,62.9,51.0,30.27,ENE,75,2.0,6.0,65,0.00,,,0.00,weatherlink.com 1.10,2013-03-08 15:59:00,
2013-03-08 10:14:00,63.6,52.0,30.26,SE,139,5.0,7.0,65,0.00,,,0.00,weatherlink.com 1.10,2013-03-08 16:14:00,
2013-03-08 10:29:00,62.2,51.0,30.26,NE,55,0.0,5.0,68,0.00,,,0.00,weatherlink.com 1.10,2013-03-08 16:29:00,
2013-03-08 10:44:00,62.8,52.0,30.26,SE,139,0.0,6.0,68,0.00,,,0.00,weatherlink.com 1.10,2013-03-08 16:44:00,
2013-03-08 10:59:00,63.4,52.0,30.26,ESE,117,0.0,5.0,66,0.00,,,0.00,weatherlink.com 1.10,2013-03-08 16:59:00,
2013-03-08 11:14:00,64.9,52.0,30.26,ENE,74,0.0,6.0,64,0.00,,,0.00,weatherlink.com 1.10,2013-03-08 17:14:00,
2013-03-08 11:29:00,65.8,51.0,30.26,NE,38,0.0,4.0,59,0.00,,,0.00,weatherlink.com 1.10,2013-03-08 17:29:00,
2013-03-08 11:45:00,66.3,53.0,30.26,ESE,112,0.0,5.0,62,0.00,,,0.00,weatherlink.com 1.10,2013-03-08 17:45:00,
2013-03-08 11:59:00,66.3,52.0,30.25,ENE,63,1.0,5.0,61,0.00,,,0.00,weatherlink.com 1.10,2013-03-08 17:59:00,
2013-03-08 12:15:00,67.1,53.0,30.23,SE,142,1.0,4.0,61,0.00,,,0.00,weatherlink.com 1.10,2013-03-08 18:15:00,
2013-03-08 12:30:00,68.5,53.0,30.23,ENE,63,3.0,6.0,59,0.00,,,0.00,weatherlink.com 1.10,2013-03-08 18:30:00,
2013-03-08 12:45:00,68.8,54.0,30.21,East,86,2.0,7.0,59,0.00,,,0.00,weatherlink.com 1.10,2013-03-08 18:45:00,
2013-03-08 13:00:00,70.3,54.0,30.20,SSE,154,2.0,6.0,56,0.00,,,0.00,weatherlink.com 1.10,2013-03-08 19:00:00,
2013-03-08 13:15:00,71.9,55.0,30.19,SE,141,5.0,10.0,55,0.00,,,0.00,weatherlink.com 1.10,2013-03-08 19:15:00,
2013-03-08 13:30:00,72.2,53.0,30.18,SSE,147,3.0,7.0,52,0.00,,,0.00,weatherlink.com 1.10,2013-03-08 19:30:00,
2013-03-08 13:45:00,71.4,53.0,30.17,East,98,2.0,8.0,52,0.00,,,0.00,weatherlink.com 1.10,2013-03-08 19:45:00,
2013-03-08 14:00:00,69.6,53.0,30.16,SE,143,2.0,7.0,56,0.00,,,0.00,weatherlink.com 1.10,2013-03-08 20:00:00,
2013-03-08 14:15:00,71.8,53.0,30.15,SSE,163,4.0,6.0,52,0.00,,,0.00,weatherlink.com 1.10,2013-03-08 20:15:00,
2013-03-08 14:30:00,72.6,53.0,30.14,East,82,2.0,8.0,51,0.00,,,0.00,weatherlink.com 1.10,2013-03-08 20:30:00,
2013-03-08 14:45:00,73.7,54.0,30.13,NE,44,2.0,7.0,50,0.00,,,0.00,weatherlink.com 1.10,2013-03-08 20:45:00,
2013-03-08 15:00:00,72.6,54.0,30.13,SSE,147,3.0,6.0,52,0.00,,,0.00,weatherlink.com 1.10,2013-03-08 21:00:00,
2013-03-08 15:15:00,71.6,53.0,30.12,East,99,0.0,7.0,53,0.00,,,0.00,weatherlink.com 1.10,2013-03-08 21:15:00,
2013-03-08 15:30:00,72.5,54.0,30.12,East,83,3.0,5.0,52,0.00,,,0.00,weatherlink.com 1.10,2013-03-08 21:30:00,
2013-03-08 15:45:00,72.7,53.0,30.11,SSE,152,4.0,9.0,51,0.00,,,0.00,weatherlink.com 1.10,2013-03-08 21:45:00,
2013-03-08 16:00:00,72.9,52.0,30.12,SE,134,3.0,7.0,48,0.00,,,0.00,weatherlink.com 1.10,2013-03-08 22:00:00,
2013-03-08 16:15:00,72.2,51.0,30.12,South,173,3.0,8.0,48,0.00,,,0.00,weatherlink.com 1.10,2013-03-08 22:15:00,
2013-03-08 16:30:00,71.6,51.0,30.12,ESE,121,3.0,5.0,49,0.00,,,0.00,weatherlink.com 1.10,2013-03-08 22:30:00,
2013-03-08 16:45:00,71.1,51.0,30.12,SSE,163,1.0,9.0,50,0.00,,,0.00,weatherlink.com 1.10,2013-03-08 22:45:00,
2013-03-08 17:00:00,70.9,52.0,30.12,SSE,147,0.0,7.0,51,0.00,,,0.00,weatherlink.com 1.10,2013-03-08 23:00:00,
2013-03-08 17:15:00,70.7,52.0,30.12,SE,126,0.0,4.0,51,0.00,,,0.00,weatherlink.com 1.10,2013-03-08 23:15:00,
2013-03-08 17:30:00,70.4,52.0,30.12,SSE,147,0.0,4.0,52,0.00,,,0.00,weatherlink.com 1.10,2013-03-08 23:30:00,
2013-03-08 17:45:00,70.0,52.0,30.12,SE,140,0.0,4.0,53,0.00,,,0.00,weatherlink.com 1.10,2013-03-08 23:45:00,
2013-03-08 18:00:00,69.4,52.0,30.13,SE,140,0.0,2.0,54,0.00,,,0.00,weatherlink.com 1.10,2013-03-09 00:00:00,
2013-03-08 18:15:00,68.9,52.0,30.13,ESE,119,1.0,2.0,55,0.00,,,0.00,weatherlink.com 1.10,2013-03-09 00:15:00,
2013-03-08 18:30:00,68.3,52.0,30.14,SE,125,1.0,3.0,57,0.00,,,0.00,weatherlink.com 1.10,2013-03-09 00:30:00,
2013-03-08 18:45:00,67.7,52.0,30.14,SE,125,0.0,3.0,58,0.00,,,0.00,weatherlink.com 1.10,2013-03-09 00:45:00,
2013-03-08 19:00:00,67.2,52.0,30.13,ESE,102,0.0,3.0,59,0.00,,,0.00,weatherlink.com 1.10,2013-03-09 01:00:00,
2013-03-08 19:17:00,66.8,52.0,30.13,SSE,156,2.0,5.0,60,0.00,,,0.00,weatherlink.com 1.10,2013-03-09 01:17:00,
2013-03-08 19:30:00,66.6,52.0,30.12,SE,126,1.0,7.0,60,0.00,,,0.00,weatherlink.com 1.10,2013-03-09 01:30:00,
2013-03-08 19:45:00,66.3,51.0,30.12,ESE,109,4.0,10.0,59,0.00,,,0.00,weatherlink.com 1.10,2013-03-09 01:45:00,
2013-03-08 20:00:00,65.9,51.0,30.11,East,101,0.0,6.0,60,0.00,,,0.00,weatherlink.com 1.10,2013-03-09 02:00:00,
2013-03-08 20:15:00,65.4,51.0,30.11,ESE,122,2.0,6.0,61,0.00,,,0.00,weatherlink.com 1.10,2013-03-09 02:15:00,
2013-03-08 20:30:00,64.8,52.0,30.11,SE,146,5.0,9.0,63,0.00,,,0.00,weatherlink.com 1.10,2013-03-09 02:30:00,
2013-03-08 20:45:00,64.4,53.0,30.11,SE,137,7.0,11.0,66,0.00,,,0.00,weatherlink.com 1.10,2013-03-09 02:45:00,
2013-03-08 21:00:00,63.9,53.0,30.12,SSE,165,4.0,6.0,68,0.00,,,0.00,weatherlink.com 1.10,2013-03-09 03:00:00,
2013-03-08 21:15:00,63.3,53.0,30.11,South,174,4.0,6.0,69,0.00,,,0.00,weatherlink.com 1.10,2013-03-09 03:15:00,
2013-03-08 21:30:00,62.8,53.0,30.11,SSE,157,2.0,7.0,70,0.00,,,0.00,weatherlink.com 1.10,2013-03-09 03:30:00,
2013-03-08 21:45:00,62.3,53.0,30.11,SE,146,5.0,5.0,71,0.00,,,0.00,weatherlink.com 1.10,2013-03-09 03:45:00,
2013-03-08 22:00:00,61.9,53.0,30.12,SSE,165,3.0,6.0,72,0.00,,,0.00,weatherlink.com 1.10,2013-03-09 04:00:00,
2013-03-08 22:15:00,61.5,52.0,30.11,SE,144,1.0,8.0,72,0.00,,,0.00,weatherlink.com 1.10,2013-03-09 04:15:00,
2013-03-08 22:30:00,61.3,52.0,30.12,SSE,165,4.0,7.0,72,0.00,,,0.00,weatherlink.com 1.10,2013-03-09 04:30:00,
2013-03-08 22:45:00,61.0,52.0,30.13,SSE,159,2.0,5.0,73,0.00,,,0.00,weatherlink.com 1.10,2013-03-09 04:45:00,
2013-03-08 23:00:00,60.6,52.0,30.12,SSE,159,1.0,5.0,73,0.00,,,0.00,weatherlink.com 1.10,2013-03-09 05:00:00,
2013-03-08 23:15:00,60.4,52.0,30.12,South,169,2.0,6.0,74,0.00,,,0.00,weatherlink.com 1.10,2013-03-09 05:15:00,
2013-03-08 23:30:00,60.1,52.0,30.11,SSE,157,3.0,7.0,75,0.00,,,0.00,weatherlink.com 1.10,2013-03-09 05:30:00,
2013-03-08 23:45:00,59.8,52.0,30.11,South,183,3.0,4.0,76,0.00,,,0.00,weatherlink.com 1.10,2013-03-09 05:45:00,